createdAt,value
2023-01-20T00:01:26.963Z,-2.45
2023-01-20T00:03:55.706Z,-2.51
2023-01-20T00:06:24.102Z,-2.55
2023-01-20T00:08:51.921Z,-2.56
2023-01-20T00:11:19.396Z,-2.53
2023-01-20T00:13:46.238Z,-2.49
2023-01-20T00:16:13.696Z,-2.47
2023-01-20T00:18:41.116Z,-2.50
2023-01-20T00:21:11.032Z,-2.45
2023-01-20T00:23:38.710Z,-2.51
2023-01-20T00:26:10.235Z,-2.52
2023-01-20T00:28:36.935Z,-2.40
2023-01-20T00:31:30.741Z,-2.48
2023-01-20T00:34:01.036Z,-2.56
2023-01-20T00:36:31.380Z,-2.61
2023-01-20T00:38:58.617Z,-2.70
2023-01-20T00:41:25.241Z,-2.71
2023-01-20T00:43:51.881Z,-2.71
2023-01-20T00:46:18.751Z,-2.67
2023-01-20T00:48:45.432Z,-2.78
2023-01-20T00:51:12.771Z,-2.78
2023-01-20T00:53:39.614Z,-2.74
2023-01-20T00:56:07.170Z,-2.74
2023-01-20T00:58:34.096Z,-2.64
2023-01-20T01:01:01.443Z,-2.61
2023-01-20T01:03:28.672Z,-2.67
2023-01-20T01:06:04.954Z,-2.68
2023-01-20T01:08:31.566Z,-2.71
2023-01-20T01:10:58.225Z,-2.61
2023-01-20T01:13:24.871Z,-2.51
2023-01-20T01:15:51.555Z,-2.51
2023-01-20T01:18:18.251Z,-2.49
2023-01-20T01:20:45.095Z,-2.45
2023-01-20T01:23:12.627Z,-2.52
2023-01-20T01:25:39.370Z,-2.44
2023-01-20T01:28:06.029Z,-2.44
2023-01-20T01:30:32.876Z,-2.46
2023-01-20T01:32:59.530Z,-2.46
2023-01-20T01:35:26.146Z,-2.46
2023-01-20T01:37:52.791Z,-2.43
2023-01-20T01:40:19.493Z,-2.57
2023-01-20T01:42:46.107Z,-2.60
2023-01-20T01:45:24.823Z,-2.58
2023-01-20T01:48:09.924Z,-2.59
2023-01-20T01:50:58.621Z,-2.73
2023-01-20T01:53:27.563Z,-2.73
2023-01-20T01:55:58.623Z,-2.70
2023-01-20T01:58:30.783Z,-2.68
2023-01-20T02:00:57.489Z,-2.61
2023-01-20T02:03:27.188Z,-2.59
2023-01-20T02:05:55.037Z,-2.58
2023-01-20T02:08:21.809Z,-2.67
2023-01-20T02:10:48.450Z,-2.54
2023-01-20T02:13:15.210Z,-2.67
2023-01-20T02:15:52.582Z,-2.67
2023-01-20T02:19:20.643Z,-2.63
2023-01-20T02:22:30.321Z,-2.61
2023-01-20T02:26:04.370Z,-2.55
2023-01-20T02:29:02.485Z,-2.56
2023-01-20T03:00:40.335Z,-2.38
2023-01-20T03:03:11.909Z,-2.42
2023-01-20T03:05:45.852Z,-2.54
2023-01-20T03:08:16.093Z,-2.59
2023-01-20T03:10:43.078Z,-2.77
2023-01-20T03:13:22.236Z,-2.82
2023-01-20T03:16:17.585Z,-2.89
2023-01-20T03:18:44.893Z,-2.85
2023-01-20T03:21:13.117Z,-2.83
2023-01-20T03:23:45.438Z,-2.74
2023-01-20T03:26:14.605Z,-2.74
2023-01-20T03:28:45.734Z,-2.77
2023-01-20T03:31:40.993Z,-2.68
2023-01-20T03:34:17.119Z,-2.68
2023-01-20T03:36:45.806Z,-2.72
2023-01-20T03:39:13.017Z,-2.74
2023-01-20T03:42:21.327Z,-2.75
2023-01-20T03:45:24.414Z,-2.66
2023-01-20T03:47:59.194Z,-2.64
2023-01-20T03:50:39.766Z,-2.62
2023-01-20T03:53:31.961Z,-2.58
2023-01-20T03:56:12.537Z,-2.52
2023-01-20T03:58:43.586Z,-2.45
2023-01-20T04:01:17.814Z,-2.43
2023-01-20T04:03:47.592Z,-2.39
2023-01-20T04:06:16.337Z,-2.40
2023-01-20T04:08:48.232Z,-2.43
2023-01-20T04:11:15.012Z,-2.44
2023-01-20T04:13:41.680Z,-2.37
2023-01-20T04:16:17.563Z,-2.43
2023-01-20T04:18:48.797Z,-2.38
2023-01-20T04:21:28.588Z,-2.36
2023-01-20T04:24:07.693Z,-2.38
2023-01-20T04:26:34.376Z,-2.55
2023-01-20T04:29:09.783Z,-2.55
2023-01-20T04:31:38.241Z,-2.57
2023-01-20T04:34:05.431Z,-2.55
2023-01-20T04:36:32.102Z,-2.51
2023-01-20T04:38:58.798Z,-2.47
2023-01-20T04:41:25.481Z,-2.61
2023-01-20T04:43:52.126Z,-2.57
2023-01-20T04:46:19.046Z,-2.58
2023-01-20T04:48:46.330Z,-2.52
2023-01-20T04:51:13.760Z,-2.40
2023-01-20T04:53:40.944Z,-2.29
2023-01-20T04:56:15.287Z,-2.23
2023-01-20T04:58:42.721Z,-2.39
2023-01-20T05:01:09.691Z,-2.51
2023-01-20T05:03:37.131Z,-2.62
2023-01-20T05:06:04.041Z,-2.58
2023-01-20T05:08:30.674Z,-2.56
2023-01-20T05:10:57.350Z,-2.46
2023-01-20T05:13:24.050Z,-2.47
2023-01-20T05:15:50.652Z,-2.40
2023-01-20T05:18:17.271Z,-2.34
2023-01-20T05:20:48.534Z,-2.28
2023-01-20T05:23:16.399Z,-2.26
2023-01-20T05:25:43.240Z,-2.27
2023-01-20T05:28:09.970Z,-2.27
2023-01-20T05:30:36.645Z,-2.27
2023-01-20T05:33:03.300Z,-2.28
2023-01-20T05:35:29.970Z,-2.29
2023-01-20T05:37:57.116Z,-2.31
2023-01-20T05:40:23.816Z,-2.36
2023-01-20T05:42:50.522Z,-2.29
2023-01-20T05:45:17.479Z,-2.27
2023-01-20T05:47:44.289Z,-2.28
2023-01-20T05:50:12.137Z,-2.21
2023-01-20T05:52:38.860Z,-2.30
2023-01-20T05:55:05.950Z,-2.25
2023-01-20T05:57:32.604Z,-2.24
2023-01-20T05:59:59.252Z,-2.25
2023-01-20T06:02:25.960Z,-2.23
2023-01-20T06:04:52.620Z,-2.12
2023-01-20T06:07:19.239Z,-2.12
2023-01-20T06:09:45.899Z,-2.11
2023-01-20T06:12:12.683Z,-2.09
2023-01-20T06:14:39.327Z,-2.09
2023-01-20T06:17:05.896Z,-2.15
2023-01-20T06:19:32.511Z,-2.13
2023-01-20T06:21:59.215Z,-2.04
2023-01-20T06:24:25.852Z,-2.00
2023-01-20T06:26:52.719Z,-2.05
2023-01-20T06:29:19.502Z,-2.17
2023-01-20T06:31:46.821Z,-2.30
2023-01-20T06:34:14.129Z,-2.32
2023-01-20T06:36:40.830Z,-2.41
2023-01-20T06:39:07.461Z,-2.44
2023-01-20T06:41:34.339Z,-2.55
2023-01-20T06:44:01.095Z,-2.40
2023-01-20T06:46:27.801Z,-2.34
2023-01-20T06:49:00.418Z,-2.21
2023-01-20T06:51:29.782Z,-2.22
2023-01-20T06:53:56.908Z,-2.20
2023-01-20T06:56:24.054Z,-2.10
2023-01-20T06:58:51.212Z,-2.08
2023-01-20T07:01:23.131Z,-2.05
2023-01-20T07:03:50.200Z,-1.98
2023-01-20T07:06:38.550Z,-1.95
2023-01-20T07:09:10.552Z,-1.84
2023-01-20T07:11:37.331Z,-1.66
2023-01-20T07:14:05.467Z,-1.76
2023-01-20T07:16:32.809Z,-1.78
2023-01-20T07:18:59.825Z,-1.69
2023-01-20T07:21:26.801Z,-1.80
2023-01-20T07:23:53.916Z,-1.88
2023-01-20T07:26:23.140Z,-1.83
2023-01-20T07:28:49.936Z,-1.95
2023-01-20T07:31:22.565Z,-1.92
2023-01-20T07:33:50.437Z,-1.87
2023-01-20T07:36:18.069Z,-1.95
2023-01-20T07:38:48.663Z,-1.83
2023-01-20T07:41:19.778Z,-1.78
2023-01-20T07:43:48.717Z,-1.80
2023-01-20T07:46:15.377Z,-1.67
2023-01-20T07:48:42.459Z,-1.69
2023-01-20T07:51:11.511Z,-1.44
2023-01-20T07:53:46.673Z,-1.50
2023-01-20T07:56:25.162Z,-1.51
2023-01-20T07:58:53.668Z,-1.57
2023-01-20T08:01:31.394Z,-1.65
2023-01-20T08:04:02.683Z,-1.71
2023-01-20T08:06:29.852Z,-1.72
2023-01-20T08:09:00.595Z,-1.64
2023-01-20T08:11:27.376Z,-1.55
2023-01-20T08:13:54.247Z,-1.39
2023-01-20T08:16:21.188Z,-1.33
2023-01-20T08:18:48.014Z,-1.40
2023-01-20T08:21:26.119Z,-1.24
2023-01-20T08:23:55.434Z,-1.35
2023-01-20T08:26:24.607Z,-1.34
2023-01-20T08:28:52.129Z,-1.32
2023-01-20T08:31:21.690Z,-1.22
2023-01-20T08:33:49.000Z,-1.16
2023-01-20T08:36:19.256Z,-1.06
2023-01-20T08:38:47.413Z,-1.12
2023-01-20T08:41:17.666Z,-0.67
2023-01-20T08:43:44.599Z,-0.34
2023-01-20T08:46:14.074Z,-0.37
2023-01-20T08:48:42.521Z,-0.51
2023-01-20T08:51:15.898Z,-0.69
2023-01-20T08:53:43.179Z,-0.67
2023-01-20T08:56:11.209Z,-0.67
2023-01-20T08:58:38.127Z,-0.61
2023-01-20T09:01:12.714Z,-0.56
2023-01-20T09:03:40.107Z,-0.60
2023-01-20T09:06:10.827Z,-0.51
2023-01-20T09:08:38.303Z,-0.61
2023-01-20T09:11:10.518Z,-0.64
2023-01-20T09:13:37.763Z,-0.49
2023-01-20T09:16:05.029Z,-0.54
2023-01-20T09:18:32.613Z,-0.50
2023-01-20T09:21:00.090Z,-0.68
2023-01-20T09:23:26.852Z,-0.60
2023-01-20T09:25:53.666Z,-0.59
2023-01-20T09:28:20.352Z,-0.50
2023-01-20T09:30:47.032Z,-0.51
2023-01-20T09:33:13.850Z,-0.39
2023-01-20T09:35:40.652Z,-0.37
2023-01-20T09:38:25.953Z,-0.49
2023-01-20T09:41:35.919Z,-0.50
2023-01-20T09:44:42.333Z,-0.45
2023-01-20T09:47:38.741Z,-0.41
2023-01-20T09:50:43.976Z,-0.28
2023-01-20T09:53:39.495Z,-0.18
2023-01-20T09:56:14.116Z,-0.18
2023-01-20T09:59:06.967Z,-0.21
2023-01-20T10:01:36.665Z,-0.07
2023-01-20T10:04:38.274Z,-0.08
2023-01-20T10:07:16.575Z,0.01
2023-01-20T10:10:03.260Z,-0.04
2023-01-20T10:12:39.090Z,0.28
2023-01-20T10:15:12.497Z,0.53
2023-01-20T10:18:02.427Z,0.37
2023-01-20T10:20:40.694Z,0.39
2023-01-20T10:23:42.949Z,0.30
2023-01-20T10:26:30.319Z,0.16
2023-01-20T10:29:02.293Z,-0.10
2023-01-20T10:31:33.468Z,-0.08
2023-01-20T10:34:09.000Z,-0.01
2023-01-20T10:36:36.136Z,0.23
2023-01-20T10:39:10.945Z,0.18
2023-01-20T10:41:51.673Z,0.16
2023-01-20T10:44:18.419Z,-0.08
2023-01-20T10:47:41.231Z,0.02
2023-01-20T10:50:31.843Z,0.07
2023-01-20T10:53:25.051Z,-0.04
2023-01-20T10:56:02.210Z,-0.03
2023-01-20T10:58:37.925Z,-0.14
2023-01-20T11:01:09.286Z,-0.02
2023-01-20T11:03:40.773Z,0.10
2023-01-20T11:06:07.608Z,-0.14
2023-01-20T11:08:34.229Z,-0.10
2023-01-20T11:11:15.020Z,0.02
2023-01-20T11:13:41.617Z,0.16
2023-01-20T11:16:18.943Z,0.14
2023-01-20T11:19:06.200Z,0.03
2023-01-20T11:21:36.663Z,0.20
2023-01-20T11:24:35.565Z,0.14
2023-01-20T11:27:04.892Z,0.11
2023-01-20T11:29:38.457Z,0.30
2023-01-20T11:32:05.261Z,0.23
2023-01-20T11:34:34.907Z,0.32
2023-01-20T11:37:25.543Z,0.37
2023-01-20T11:40:11.980Z,0.33
2023-01-20T11:42:44.976Z,0.40
2023-01-20T11:45:34.748Z,0.45
2023-01-20T11:48:33.628Z,0.47
2023-01-20T11:51:01.611Z,0.46
2023-01-20T11:53:33.253Z,0.46
2023-01-20T11:56:19.898Z,0.33
2023-01-20T11:58:56.071Z,0.28
2023-01-20T12:01:28.489Z,0.11
2023-01-20T12:04:38.050Z,0.19
2023-01-20T12:07:12.571Z,0.06
2023-01-20T12:09:46.831Z,0.03
2023-01-20T12:12:39.972Z,0.08
2023-01-20T12:15:19.451Z,0.19
2023-01-20T12:18:10.500Z,0.13
2023-01-20T12:20:54.782Z,0.06
2023-01-20T12:23:46.191Z,0.22
2023-01-20T12:26:15.009Z,0.18
2023-01-20T12:29:02.377Z,0.13
2023-01-20T12:31:31.262Z,0.07
2023-01-20T12:34:06.922Z,0.26
2023-01-20T12:37:05.656Z,0.33
2023-01-20T12:40:23.354Z,0.32
2023-01-20T12:43:05.958Z,0.27
2023-01-20T12:46:04.851Z,0.32
2023-01-20T12:48:59.875Z,0.37
2023-01-20T12:51:40.824Z,0.23
2023-01-20T12:54:48.989Z,0.13
2023-01-20T12:57:52.017Z,-0.09
2023-01-20T13:01:07.561Z,0.04
2023-01-20T13:04:15.746Z,0.24
2023-01-20T13:07:31.012Z,0.02
2023-01-20T13:10:24.303Z,0.16
2023-01-20T13:13:33.347Z,0.07
2023-01-20T13:16:36.142Z,0.12
2023-01-20T13:19:29.531Z,0.04
2023-01-20T13:22:07.899Z,0.04
2023-01-20T13:24:35.559Z,-0.09
2023-01-20T13:27:02.949Z,-0.29
2023-01-20T13:29:55.205Z,-0.29
2023-01-20T13:32:49.131Z,-0.07
2023-01-20T13:35:44.434Z,-0.16
2023-01-20T13:38:33.161Z,-0.20
2023-01-20T13:41:03.503Z,-0.29
2023-01-20T13:44:03.560Z,-0.40
2023-01-20T13:46:35.948Z,-0.25
2023-01-20T13:49:23.247Z,-0.19
2023-01-20T13:51:50.429Z,-0.15
2023-01-20T13:54:44.717Z,-0.12
2023-01-20T13:57:40.595Z,0.02
2023-01-20T14:00:12.980Z,-0.07
2023-01-20T14:02:39.861Z,-0.17
2023-01-20T14:05:20.321Z,-0.07
2023-01-20T14:07:46.946Z,-0.11
2023-01-20T14:10:14.281Z,-0.17
2023-01-20T14:12:41.690Z,-0.15
2023-01-20T14:15:23.480Z,-0.15
2023-01-20T14:17:55.210Z,-0.19
2023-01-20T14:20:26.516Z,-0.10
2023-01-20T14:22:53.205Z,-0.09
2023-01-20T14:25:26.159Z,-0.09
2023-01-20T14:27:53.052Z,-0.03
2023-01-20T14:30:25.746Z,-0.06
2023-01-20T14:32:53.380Z,-0.09
2023-01-20T14:35:28.957Z,-0.25
2023-01-20T14:37:55.737Z,-0.24
2023-01-20T14:40:26.235Z,-0.29
2023-01-20T14:43:06.260Z,-0.35
2023-01-20T14:45:33.627Z,-0.47
2023-01-20T14:48:02.849Z,-0.42
2023-01-20T14:50:30.020Z,-0.42
2023-01-20T14:52:56.695Z,-0.36
2023-01-20T14:55:32.146Z,-0.36
2023-01-20T14:57:59.231Z,-0.44
2023-01-20T15:00:31.665Z,-0.36
2023-01-20T15:03:15.829Z,-0.48
2023-01-20T15:05:54.941Z,-0.47
2023-01-20T15:08:26.351Z,-0.45
2023-01-20T15:11:32.600Z,-0.44
2023-01-20T15:14:01.714Z,-0.44
2023-01-20T15:16:38.788Z,-0.58
2023-01-20T15:19:18.392Z,-0.60
2023-01-20T15:21:53.385Z,-0.51
2023-01-20T15:24:23.048Z,-0.56
2023-01-20T15:26:52.620Z,-0.46
2023-01-20T15:29:58.548Z,-0.53
2023-01-20T15:32:26.312Z,-0.45
2023-01-20T15:34:52.899Z,-0.42
2023-01-20T15:37:20.113Z,-0.51
2023-01-20T15:39:47.582Z,-0.54
2023-01-20T15:42:15.357Z,-0.51
2023-01-20T15:44:42.040Z,-0.59
2023-01-20T15:47:20.611Z,-0.57
2023-01-20T15:49:47.726Z,-0.57
2023-01-20T15:52:14.364Z,-0.57
2023-01-20T15:54:40.992Z,-0.67
2023-01-20T15:57:16.841Z,-0.70
2023-01-20T15:59:47.618Z,-0.74
2023-01-20T16:02:19.629Z,-0.78
2023-01-20T16:04:46.414Z,-0.78
2023-01-20T16:07:15.768Z,-0.93
2023-01-20T16:09:43.454Z,-0.88
2023-01-20T16:12:14.755Z,-0.88
2023-01-20T16:14:41.888Z,-0.97
2023-01-20T16:17:21.200Z,-0.94
2023-01-20T16:19:48.918Z,-1.06
2023-01-20T16:22:16.327Z,-1.06
2023-01-20T16:24:43.212Z,-1.11
2023-01-20T16:27:22.068Z,-0.99
2023-01-20T16:29:49.383Z,-0.96
2023-01-20T16:32:18.189Z,-1.06
2023-01-20T16:34:46.390Z,-1.03
2023-01-20T16:37:14.449Z,-0.91
2023-01-20T16:39:41.172Z,-0.89
2023-01-20T16:42:11.562Z,-0.87
2023-01-20T16:44:39.003Z,-0.95
2023-01-20T16:47:06.617Z,-0.94
2023-01-20T16:49:33.240Z,-1.02
2023-01-20T16:52:00.109Z,-0.95
2023-01-20T16:54:26.693Z,-0.83
2023-01-20T16:56:53.302Z,-0.98
2023-01-20T16:59:19.938Z,-0.93
2023-01-20T17:01:49.778Z,-0.92
2023-01-20T17:04:16.744Z,-0.87
2023-01-20T17:06:43.409Z,-0.99
2023-01-20T17:09:10.061Z,-0.95
2023-01-20T17:11:38.759Z,-0.87
2023-01-20T17:14:07.193Z,-0.78
2023-01-20T17:16:34.404Z,-0.83
2023-01-20T17:19:01.768Z,-0.81
2023-01-20T17:21:30.545Z,-0.82
2023-01-20T17:24:00.391Z,-0.87
2023-01-20T17:26:27.210Z,-0.81
2023-01-20T17:28:55.852Z,-0.96
2023-01-20T17:31:22.954Z,-0.99
2023-01-20T17:33:50.586Z,-0.92
2023-01-20T17:36:17.566Z,-0.98
2023-01-20T17:38:44.816Z,-1.00
2023-01-20T17:41:12.974Z,-0.93
2023-01-20T17:43:46.473Z,-0.92
2023-01-20T17:46:25.133Z,-0.88
2023-01-20T17:48:51.711Z,-0.91
2023-01-20T17:51:20.998Z,-0.87
2023-01-20T17:53:48.443Z,-0.79
2023-01-20T17:56:17.461Z,-0.91
2023-01-20T17:58:45.765Z,-1.00
2023-01-20T18:01:27.482Z,-0.93
2023-01-20T18:03:56.527Z,-0.88
2023-01-20T18:06:24.394Z,-0.93
2023-01-20T18:08:56.435Z,-0.90
2023-01-20T18:11:27.082Z,-1.01
2023-01-20T18:13:56.119Z,-0.97
2023-01-20T18:16:26.462Z,-0.93
2023-01-20T18:18:58.379Z,-0.90
2023-01-20T18:21:31.072Z,-0.86
2023-01-20T18:23:58.687Z,-0.91
2023-01-20T18:26:29.570Z,-0.90
2023-01-20T18:28:58.522Z,-0.77
2023-01-20T18:31:27.055Z,-0.89
2023-01-20T18:33:55.825Z,-0.91
2023-01-20T18:36:26.055Z,-0.91
2023-01-20T18:38:58.696Z,-0.92
2023-01-20T18:41:26.856Z,-0.91
2023-01-20T18:43:53.763Z,-0.94
2023-01-20T18:46:20.736Z,-1.08
2023-01-20T18:48:48.984Z,-1.14
2023-01-20T18:51:17.844Z,-1.22
2023-01-20T18:53:45.748Z,-1.14
2023-01-20T18:56:15.240Z,-1.24
2023-01-20T18:58:47.026Z,-1.19
2023-01-20T19:01:19.803Z,-1.10
2023-01-20T19:03:47.632Z,-1.15
2023-01-20T19:06:22.656Z,-1.22
2023-01-20T19:08:49.824Z,-1.33
2023-01-20T19:11:22.775Z,-1.30
2023-01-20T19:13:51.702Z,-1.36
2023-01-20T19:16:19.999Z,-1.28
2023-01-20T19:18:51.965Z,-1.30
2023-01-20T19:21:18.737Z,-1.29
2023-01-20T19:23:49.902Z,-1.18
2023-01-20T19:26:18.718Z,-1.28
2023-01-20T19:28:47.027Z,-1.26
2023-01-20T19:31:19.287Z,-1.23
2023-01-20T19:33:46.312Z,-1.19
2023-01-20T19:36:15.901Z,-1.12
2023-01-20T19:38:43.030Z,-1.06
2023-01-20T19:41:18.916Z,-1.26
2023-01-20T19:43:46.222Z,-1.26
2023-01-20T19:46:17.572Z,-1.26
2023-01-20T19:48:44.721Z,-1.24
2023-01-20T19:51:16.053Z,-1.18
2023-01-20T19:53:44.235Z,-1.17
2023-01-20T19:56:13.615Z,-1.15
2023-01-20T19:58:41.757Z,-1.15
2023-01-20T20:01:15.345Z,-1.09
2023-01-20T20:03:42.568Z,-1.01
2023-01-20T20:06:31.572Z,-1.06
2023-01-20T20:09:16.391Z,-1.05
2023-01-20T20:11:43.417Z,-1.02
2023-01-20T20:14:13.996Z,-1.10
2023-01-20T20:16:41.138Z,-1.09
2023-01-20T20:19:09.908Z,-1.11
2023-01-20T20:21:36.583Z,-1.04
2023-01-20T20:24:05.375Z,-1.06
2023-01-20T20:26:35.330Z,-0.99
2023-01-20T20:29:03.561Z,-1.09
2023-01-20T20:31:30.403Z,-1.07
2023-01-20T20:33:58.978Z,-1.03
2023-01-20T20:36:28.294Z,-1.08
2023-01-20T20:38:55.746Z,-1.03
2023-01-20T20:41:22.521Z,-1.18
2023-01-20T20:43:49.140Z,-1.21
2023-01-20T20:46:16.499Z,-1.12
2023-01-20T20:48:43.313Z,-1.17
2023-01-20T20:51:15.946Z,-1.12
2023-01-20T20:53:43.591Z,-1.03
2023-01-20T20:56:13.415Z,-1.12
2023-01-20T20:58:55.568Z,-1.21
2023-01-20T21:01:27.770Z,-1.25
2023-01-20T21:03:57.471Z,-1.28
2023-01-20T21:06:24.158Z,-1.22
2023-01-20T21:08:50.818Z,-1.27
2023-01-20T21:11:18.491Z,-1.17
2023-01-20T21:13:45.166Z,-1.17
2023-01-20T21:16:14.922Z,-1.17
2023-01-20T21:18:41.768Z,-1.11
2023-01-20T21:21:13.375Z,-1.23
2023-01-20T21:23:43.261Z,-1.26
2023-01-20T21:26:12.745Z,-1.12
2023-01-20T21:28:39.959Z,-1.10
2023-01-20T21:31:11.418Z,-1.19
2023-01-20T21:33:38.939Z,-1.23
2023-01-20T21:36:07.298Z,-1.15
2023-01-20T21:38:34.052Z,-1.18
2023-01-20T21:41:09.947Z,-1.13
2023-01-20T21:43:57.125Z,-1.19
2023-01-20T21:46:24.638Z,-1.29
2023-01-20T21:49:10.015Z,-1.28
2023-01-20T21:51:55.641Z,-1.28
2023-01-20T21:54:22.359Z,-1.26
2023-01-20T21:56:51.161Z,-1.31
2023-01-20T21:59:18.140Z,-1.27
2023-01-20T22:01:44.810Z,-1.28
2023-01-20T22:04:11.454Z,-1.23
2023-01-20T22:06:38.076Z,-1.28
2023-01-20T22:09:04.930Z,-1.27
2023-01-20T22:11:31.565Z,-1.22
2023-01-20T22:13:58.432Z,-1.21
2023-01-20T22:16:26.050Z,-1.24
2023-01-20T22:18:53.841Z,-1.35
2023-01-20T22:21:22.152Z,-1.29
2023-01-20T22:23:48.952Z,-1.31
2023-01-20T22:26:15.586Z,-1.30
2023-01-20T22:28:42.735Z,-1.19
2023-01-20T22:31:14.815Z,-1.23
2023-01-20T22:33:41.464Z,-1.21
2023-01-20T22:36:08.614Z,-1.19
2023-01-20T22:38:35.280Z,-1.18
2023-01-20T22:41:06.689Z,-1.26
2023-01-20T22:43:35.070Z,-1.25
2023-01-20T22:46:02.923Z,-1.18
2023-01-20T22:48:34.009Z,-1.26
2023-01-20T22:51:12.209Z,-1.29
2023-01-20T22:53:39.535Z,-1.22
2023-01-20T22:56:12.422Z,-1.19
2023-01-20T22:58:39.372Z,-1.21
2023-01-20T23:01:12.707Z,-1.16
2023-01-20T23:03:39.548Z,-1.24
2023-01-20T23:06:06.449Z,-1.21
2023-01-20T23:08:33.120Z,-1.10
2023-01-20T23:11:04.481Z,-1.20
2023-01-20T23:13:31.279Z,-1.23
2023-01-20T23:15:57.915Z,-1.11
2023-01-20T23:18:25.096Z,-1.12
2023-01-20T23:20:53.396Z,-1.16
2023-01-20T23:23:21.666Z,-1.23
2023-01-20T23:25:48.396Z,-1.14
2023-01-20T23:28:15.382Z,-1.24
2023-01-20T23:30:42.428Z,-1.15
2023-01-20T23:33:09.962Z,-1.12
2023-01-20T23:35:39.052Z,-1.14
2023-01-20T23:38:06.890Z,-1.12
2023-01-20T23:40:36.181Z,-1.09
2023-01-20T23:43:02.933Z,-1.12
2023-01-20T23:45:29.651Z,-1.21
2023-01-20T23:47:56.338Z,-1.18
2023-01-20T23:50:22.996Z,-1.07
2023-01-20T23:52:49.619Z,-1.10
2023-01-20T23:55:16.344Z,-1.11
2023-01-20T23:57:42.987Z,-1.10
